createdAt,value
2022-09-06T00:01:40.325Z,6.65
2022-09-06T00:04:26.353Z,8.38
2022-09-06T00:07:12.652Z,5.28
2022-09-06T00:09:58.709Z,8.18
2022-09-06T00:12:44.736Z,6.65
2022-09-06T00:15:31.004Z,13.82
2022-09-06T00:18:17.181Z,7.88
2022-09-06T00:21:04.511Z,5.28
2022-09-06T00:23:50.970Z,8.90
2022-09-06T00:26:36.840Z,7.55
2022-09-06T00:29:22.846Z,4.65
2022-09-06T00:32:09.152Z,6.95
2022-09-06T00:34:55.400Z,4.45
2022-09-06T00:37:41.321Z,5.97
2022-09-06T00:40:29.546Z,7.00
2022-09-06T00:43:15.718Z,8.88
2022-09-06T00:46:02.610Z,8.90
2022-09-06T00:48:50.595Z,9.05
2022-09-06T00:51:37.195Z,8.07
2022-09-06T00:54:23.605Z,6.90
2022-09-06T00:57:10.434Z,7.07
2022-09-06T00:59:56.778Z,5.68
2022-09-06T01:02:43.550Z,8.23
2022-09-06T01:05:39.441Z,5.93
2022-09-06T01:08:51.373Z,5.60
2022-09-06T01:11:55.952Z,6.32
2022-09-06T01:15:09.761Z,11.85
2022-09-06T01:18:01.937Z,7.05
2022-09-06T01:21:06.272Z,5.93
2022-09-06T01:23:59.471Z,7.32
2022-09-06T01:27:03.899Z,6.97
2022-09-06T01:30:02.310Z,7.75
2022-09-06T01:33:07.281Z,5.70
2022-09-06T01:36:01.195Z,7.05
2022-09-06T01:38:47.096Z,5.95
2022-09-06T01:41:33.194Z,9.48
2022-09-06T01:44:20.206Z,6.03
2022-09-06T01:47:31.015Z,5.50
2022-09-06T01:50:35.528Z,7.85
2022-09-06T01:53:46.696Z,10.88
2022-09-06T01:57:07.974Z,11.15
2022-09-06T01:59:53.932Z,4.07
2022-09-06T02:03:10.808Z,7.10
2022-09-06T02:06:15.312Z,4.75
2022-09-06T02:09:06.856Z,8.07
2022-09-06T02:12:01.113Z,6.22
2022-09-06T02:14:54.660Z,4.20
2022-09-06T02:17:45.607Z,7.15
2022-09-06T02:20:34.220Z,5.13
2022-09-06T02:23:24.552Z,8.32
2022-09-06T02:26:20.900Z,8.52
2022-09-06T02:29:07.066Z,7.15
2022-09-06T02:31:59.689Z,7.15
2022-09-06T02:34:46.325Z,6.00
2022-09-06T02:37:32.791Z,8.90
2022-09-06T02:40:18.917Z,9.18
2022-09-06T02:43:04.956Z,7.85
2022-09-06T02:45:50.989Z,8.65
2022-09-06T02:48:37.352Z,7.38
2022-09-06T02:51:23.757Z,7.07
2022-09-06T02:54:09.857Z,6.57
2022-09-06T02:56:55.862Z,6.60
2022-09-06T02:59:41.967Z,6.68
2022-09-06T03:02:27.836Z,4.18
2022-09-06T03:05:13.710Z,6.90
2022-09-06T03:07:59.836Z,4.80
2022-09-06T03:10:52.960Z,5.18
2022-09-06T03:13:39.087Z,4.95
2022-09-06T03:16:25.126Z,8.15
2022-09-06T03:19:11.472Z,10.25
2022-09-06T03:21:57.487Z,4.60
2022-09-06T03:24:43.889Z,9.73
2022-09-06T03:27:29.820Z,6.00
2022-09-06T03:30:16.073Z,5.78
2022-09-06T03:33:03.058Z,7.85
2022-09-06T03:35:53.875Z,6.00
2022-09-06T03:38:40.191Z,5.35
2022-09-06T03:41:26.316Z,9.23
2022-09-06T03:44:12.392Z,6.05
2022-09-06T03:46:58.805Z,8.27
2022-09-06T03:49:45.408Z,7.57
2022-09-06T03:52:31.723Z,8.00
2022-09-06T03:55:17.915Z,8.48
2022-09-06T03:58:04.221Z,8.35
2022-09-06T04:00:54.198Z,8.32
2022-09-06T04:03:40.352Z,7.50
2022-09-06T04:06:26.472Z,5.88
2022-09-06T04:09:12.451Z,11.02
2022-09-06T04:11:58.597Z,6.00
2022-09-06T04:14:44.622Z,7.82
2022-09-06T04:17:30.521Z,9.30
2022-09-06T04:20:17.462Z,9.73
2022-09-06T04:23:04.119Z,6.63
2022-09-06T04:25:52.463Z,13.05
2022-09-06T04:28:38.523Z,6.68
2022-09-06T04:31:24.617Z,13.18
2022-09-06T04:34:10.509Z,7.45
2022-09-06T04:36:56.647Z,8.43
2022-09-06T04:39:43.008Z,6.45
2022-09-06T04:42:29.312Z,9.05
2022-09-06T04:45:15.460Z,7.38
2022-09-06T04:48:02.105Z,6.75
2022-09-06T04:50:48.303Z,4.40
2022-09-06T04:53:34.215Z,7.55
2022-09-06T04:56:22.449Z,4.43
2022-09-06T04:59:08.564Z,7.07
2022-09-06T05:01:55.287Z,10.15
2022-09-06T05:04:41.180Z,11.98
2022-09-06T05:07:27.033Z,7.70
2022-09-06T05:10:12.917Z,8.75
2022-09-06T05:12:58.677Z,9.00
2022-09-06T05:15:44.835Z,5.40
2022-09-06T05:18:31.334Z,10.00
2022-09-06T05:21:17.359Z,9.07
2022-09-06T05:24:03.541Z,11.10
2022-09-06T05:26:49.534Z,11.45
2022-09-06T05:29:35.338Z,13.55
2022-09-06T05:32:21.157Z,8.13
2022-09-06T05:35:07.357Z,9.38
2022-09-06T05:37:53.403Z,8.30
2022-09-06T05:40:39.430Z,7.72
2022-09-06T05:43:25.277Z,7.10
2022-09-06T05:46:11.664Z,9.68
2022-09-06T05:49:04.819Z,8.00
2022-09-06T05:51:52.213Z,7.38
2022-09-06T05:54:38.773Z,6.88
2022-09-06T06:07:35.726Z,9.50
2022-09-06T06:10:21.981Z,9.82
2022-09-06T06:13:07.949Z,5.45
2022-09-06T06:15:53.868Z,10.43
2022-09-06T06:18:40.041Z,4.63
2022-09-06T06:21:28.839Z,8.88
2022-09-06T06:24:14.875Z,11.27
2022-09-06T06:27:00.803Z,5.78
2022-09-06T06:29:46.752Z,4.95
2022-09-06T06:32:32.594Z,11.77
2022-09-06T06:35:18.402Z,11.65
2022-09-06T06:38:04.325Z,15.80
2022-09-06T06:40:50.127Z,16.00
2022-09-06T06:43:37.774Z,19.35
2022-09-06T06:46:26.588Z,15.77
2022-09-06T06:49:12.581Z,17.38
2022-09-06T06:51:58.326Z,21.58
2022-09-06T06:54:44.315Z,18.30
2022-09-06T06:57:30.152Z,14.82
2022-09-06T07:00:16.307Z,10.02
2022-09-06T07:03:02.509Z,12.23
2022-09-06T07:08:57.082Z,10.23
2022-09-06T07:11:43.417Z,11.30
2022-09-06T07:14:29.641Z,11.20
2022-09-06T07:17:15.469Z,12.82
2022-09-06T07:20:17.136Z,9.05
2022-09-06T07:26:16.288Z,10.63
2022-09-06T07:29:04.531Z,10.90
2022-09-06T07:34:57.277Z,10.30
2022-09-06T07:37:43.495Z,17.58
2022-09-06T07:40:30.848Z,8.70
2022-09-06T07:43:16.986Z,10.52
2022-09-06T07:46:06.131Z,14.00
2022-09-06T07:48:52.473Z,8.85
2022-09-06T07:51:38.619Z,15.98
2022-09-06T07:54:31.866Z,12.55
2022-09-06T07:57:18.109Z,13.82
2022-09-06T08:00:05.149Z,19.63
2022-09-06T08:02:57.723Z,20.00
2022-09-06T08:08:58.195Z,9.82
2022-09-06T08:11:44.589Z,8.80
2022-09-06T08:14:30.510Z,9.93
2022-09-06T08:17:16.589Z,12.13
2022-09-06T08:20:04.109Z,13.32
2022-09-06T08:22:50.412Z,8.93
2022-09-06T08:25:36.380Z,18.33
2022-09-06T08:28:25.605Z,14.43
2022-09-06T08:31:16.066Z,11.48
2022-09-06T08:34:03.872Z,10.40
2022-09-06T08:36:49.857Z,11.43
2022-09-06T08:39:35.746Z,11.48
2022-09-06T08:42:21.622Z,12.70
2022-09-06T08:45:16.724Z,13.98
2022-09-06T08:48:03.321Z,12.70
2022-09-06T08:50:59.910Z,11.52
2022-09-06T08:53:52.990Z,12.15
2022-09-06T08:57:11.269Z,8.13
2022-09-06T09:00:01.489Z,10.68
2022-09-06T09:02:51.819Z,15.00
2022-09-06T09:05:40.061Z,14.07
2022-09-06T09:08:29.324Z,10.70
2022-09-06T09:11:18.758Z,9.93
2022-09-06T09:14:19.222Z,7.07
2022-09-06T09:17:15.734Z,8.02
2022-09-06T09:20:02.216Z,7.15
2022-09-06T09:22:48.938Z,7.43
2022-09-06T09:25:36.378Z,9.45
2022-09-06T09:28:25.943Z,7.47
2022-09-06T09:31:14.362Z,6.30
2022-09-06T09:34:04.721Z,11.13
2022-09-06T09:40:57.135Z,7.32
2022-09-06T09:43:57.768Z,8.38
2022-09-06T09:49:32.616Z,5.95
2022-09-06T09:52:27.646Z,15.07
2022-09-06T09:55:13.637Z,10.65
2022-09-06T09:57:59.593Z,12.05
2022-09-06T10:00:45.597Z,5.47
2022-09-06T10:03:31.393Z,12.10
2022-09-06T10:09:35.978Z,10.30
2022-09-06T10:12:34.286Z,13.68
2022-09-06T10:15:53.718Z,16.15
2022-09-06T10:18:44.009Z,8.95
2022-09-06T10:21:30.285Z,7.18
2022-09-06T10:24:31.987Z,7.38
2022-09-06T10:27:26.267Z,11.27
2022-09-06T10:30:14.555Z,6.30
2022-09-06T10:33:23.792Z,9.05
2022-09-06T10:36:10.126Z,9.23
2022-09-06T10:39:04.257Z,11.50
2022-09-06T10:41:50.358Z,7.68
2022-09-06T10:44:45.727Z,7.30
2022-09-06T10:47:38.058Z,9.23
2022-09-06T10:50:54.747Z,8.32
2022-09-06T10:53:54.898Z,9.60
2022-09-06T10:57:09.336Z,5.65
2022-09-06T11:00:15.603Z,8.27
2022-09-06T11:06:13.907Z,12.32
2022-09-06T11:09:12.037Z,11.48
2022-09-06T11:12:09.668Z,7.85
2022-09-06T11:14:55.837Z,7.07
2022-09-06T11:18:06.609Z,7.38
2022-09-06T11:21:25.377Z,8.45
2022-09-06T11:24:16.026Z,8.23
2022-09-06T11:27:06.553Z,6.63
2022-09-06T11:29:56.605Z,9.15
2022-09-06T11:32:48.593Z,9.73
2022-09-06T11:35:35.054Z,9.65
2022-09-06T11:38:25.155Z,3.47
2022-09-06T11:41:16.265Z,8.10
2022-09-06T11:44:03.006Z,5.15
2022-09-06T11:46:49.120Z,11.02
2022-09-06T11:49:37.349Z,9.13
2022-09-06T11:52:49.254Z,5.22
2022-09-06T11:55:45.668Z,8.02
2022-09-06T11:58:51.019Z,3.72
2022-09-06T12:01:37.891Z,7.13
2022-09-06T12:04:23.881Z,7.78
2022-09-06T12:07:11.996Z,7.38
2022-09-06T12:10:01.733Z,8.10
2022-09-06T12:12:52.617Z,14.65
2022-09-06T12:15:46.405Z,7.25
2022-09-06T12:18:47.896Z,5.05
2022-09-06T12:21:38.274Z,5.28
2022-09-06T12:24:36.542Z,7.20
2022-09-06T12:27:24.063Z,6.25
2022-09-06T12:30:12.476Z,7.70
2022-09-06T12:32:58.756Z,4.50
2022-09-06T12:38:39.645Z,8.88
2022-09-06T12:41:28.553Z,6.15
2022-09-06T12:44:15.788Z,7.15
2022-09-06T12:47:10.878Z,5.13
2022-09-06T12:50:21.336Z,9.05
2022-09-06T12:53:24.642Z,10.25
2022-09-06T12:56:14.369Z,6.32
2022-09-06T12:59:17.730Z,10.45
2022-09-06T13:02:08.944Z,6.85
2022-09-06T13:05:06.856Z,7.28
2022-09-06T13:07:59.597Z,8.20
2022-09-06T13:10:47.542Z,10.07
2022-09-06T13:13:33.773Z,8.65
2022-09-06T13:16:21.171Z,9.35
2022-09-06T13:19:15.772Z,7.45
2022-09-06T13:22:03.998Z,7.15
2022-09-06T13:24:56.105Z,7.82
2022-09-06T13:27:46.165Z,10.10
2022-09-06T13:30:49.041Z,5.78
2022-09-06T13:33:37.710Z,8.32
2022-09-06T13:36:33.921Z,7.72
2022-09-06T13:39:49.271Z,6.63
2022-09-06T13:42:36.731Z,8.88
2022-09-06T13:45:29.943Z,5.50
2022-09-06T13:48:28.685Z,9.07
2022-09-06T13:51:15.555Z,10.73
2022-09-06T13:54:08.792Z,8.35
2022-09-06T13:56:55.457Z,7.72
2022-09-06T13:59:42.842Z,16.48
2022-09-06T14:02:29.046Z,5.22
2022-09-06T14:05:14.992Z,7.65
2022-09-06T14:08:01.231Z,9.85
2022-09-06T14:10:48.350Z,9.45
2022-09-06T14:13:34.404Z,6.85
2022-09-06T14:16:20.772Z,7.05
2022-09-06T14:19:06.884Z,9.85
2022-09-06T14:21:52.938Z,8.93
2022-09-06T14:24:39.342Z,7.60
2022-09-06T14:27:25.417Z,6.43
2022-09-06T14:30:11.990Z,8.60
2022-09-06T14:32:58.009Z,17.00
2022-09-06T14:35:43.818Z,9.98
2022-09-06T14:38:29.820Z,9.50
2022-09-06T14:41:17.759Z,7.03
2022-09-06T14:44:04.242Z,11.82
2022-09-06T14:46:53.463Z,8.68
2022-09-06T14:49:39.657Z,7.03
2022-09-06T14:52:25.570Z,6.32
2022-09-06T14:55:12.540Z,5.38
2022-09-06T14:57:59.413Z,7.72
2022-09-06T15:00:46.709Z,6.43
2022-09-06T15:03:34.597Z,8.90
2022-09-06T15:06:22.150Z,8.43
2022-09-06T15:09:08.248Z,6.18
2022-09-06T15:11:54.641Z,5.60
2022-09-06T15:14:41.296Z,10.88
2022-09-06T15:17:27.232Z,5.95
2022-09-06T15:20:13.305Z,8.15
2022-09-06T15:23:15.135Z,9.65
2022-09-06T15:26:08.316Z,7.70
2022-09-06T15:28:54.606Z,7.55
2022-09-06T15:31:41.961Z,11.32
2022-09-06T15:34:28.142Z,7.65
2022-09-06T15:37:13.959Z,8.65
2022-09-06T15:40:00.128Z,8.18
2022-09-06T15:42:46.428Z,8.90
2022-09-06T15:45:46.819Z,9.38
2022-09-06T15:48:43.594Z,14.63
2022-09-06T15:51:29.588Z,12.10
2022-09-06T15:54:18.173Z,8.93
2022-09-06T15:57:05.133Z,8.60
2022-09-06T15:59:51.150Z,10.75
2022-09-06T16:02:37.237Z,7.53
2022-09-06T16:08:29.770Z,12.18
2022-09-06T16:11:17.029Z,6.60
2022-09-06T16:14:05.400Z,7.35
2022-09-06T16:16:54.530Z,7.47
2022-09-06T16:19:40.862Z,5.95
2022-09-06T16:22:26.752Z,9.40
2022-09-06T16:25:12.662Z,7.95
2022-09-06T16:27:58.724Z,9.60
2022-09-06T16:30:45.034Z,8.63
2022-09-06T16:33:32.529Z,7.85
2022-09-06T16:36:19.304Z,7.72
2022-09-06T16:39:06.231Z,7.97
2022-09-06T16:41:52.607Z,7.43
2022-09-06T16:44:38.760Z,13.27
2022-09-06T16:47:25.227Z,6.63
2022-09-06T16:50:11.761Z,6.47
2022-09-06T16:52:58.453Z,11.20
2022-09-06T16:55:44.623Z,11.30
2022-09-06T16:58:31.297Z,8.60
2022-09-06T17:01:17.982Z,8.98
2022-09-06T17:04:05.839Z,9.80
2022-09-06T17:06:51.888Z,12.27
2022-09-06T17:09:37.977Z,9.85
2022-09-06T17:12:24.420Z,12.60
2022-09-06T17:15:10.896Z,12.30
2022-09-06T17:17:57.070Z,10.07
2022-09-06T17:20:54.837Z,13.52
2022-09-06T17:23:41.044Z,11.43
2022-09-06T17:26:27.370Z,11.00
2022-09-06T17:29:13.399Z,12.68
2022-09-06T17:32:00.383Z,12.43
2022-09-06T17:34:46.641Z,19.73
2022-09-06T17:37:33.563Z,14.85
2022-09-06T17:40:20.182Z,16.67
2022-09-06T17:43:06.917Z,13.95
2022-09-06T17:45:53.038Z,15.15
2022-09-06T17:48:39.375Z,16.08
2022-09-06T17:51:26.191Z,17.27
2022-09-06T17:54:13.317Z,13.15
2022-09-06T17:56:59.236Z,17.85
2022-09-06T17:59:45.493Z,12.70
2022-09-06T18:02:31.416Z,19.98
2022-09-06T18:05:18.110Z,15.52
2022-09-06T18:08:04.122Z,15.18
2022-09-06T18:10:50.610Z,13.00
2022-09-06T18:13:36.817Z,11.45
2022-09-06T18:16:23.089Z,13.32
2022-09-06T18:19:09.353Z,14.75
2022-09-06T18:21:57.322Z,16.23
2022-09-06T18:24:44.159Z,12.50
2022-09-06T18:27:30.190Z,11.95
2022-09-06T18:30:16.411Z,14.93
2022-09-06T18:33:02.741Z,13.20
2022-09-06T18:35:50.515Z,11.90
2022-09-06T18:38:38.620Z,14.20
2022-09-06T18:41:42.982Z,14.75
2022-09-06T18:44:33.134Z,14.27
2022-09-06T18:47:19.623Z,11.68
2022-09-06T18:50:08.258Z,17.13
2022-09-06T18:52:55.291Z,12.93
2022-09-06T18:55:43.309Z,17.95
2022-09-06T18:58:29.527Z,11.63
2022-09-06T19:01:17.996Z,15.25
2022-09-06T19:04:05.657Z,13.85
2022-09-06T19:06:52.230Z,15.32
2022-09-06T19:09:38.724Z,16.52
2022-09-06T19:12:25.067Z,16.92
2022-09-06T19:15:13.835Z,16.15
2022-09-06T19:18:00.411Z,17.38
2022-09-06T19:20:57.232Z,20.52
2022-09-06T19:23:45.362Z,13.88
2022-09-06T19:26:34.419Z,18.17
2022-09-06T19:29:21.018Z,18.42
2022-09-06T19:32:07.635Z,18.10
2022-09-06T19:34:53.923Z,16.45
2022-09-06T19:37:40.247Z,16.35
2022-09-06T19:40:26.357Z,17.05
2022-09-06T19:43:12.460Z,13.70
2022-09-06T19:46:05.649Z,16.58
2022-09-06T19:48:52.600Z,15.43
2022-09-06T19:51:39.665Z,14.63
2022-09-06T19:54:25.761Z,15.07
2022-09-06T19:57:12.057Z,15.18
2022-09-06T19:59:57.972Z,14.25
2022-09-06T20:02:44.208Z,14.30
2022-09-06T20:05:29.998Z,12.30
2022-09-06T20:08:16.062Z,11.38
2022-09-06T20:11:03.403Z,15.05
2022-09-06T20:13:49.523Z,10.85
2022-09-06T20:16:40.681Z,11.50
2022-09-06T20:19:27.765Z,21.02
2022-09-06T20:22:13.832Z,12.45
2022-09-06T20:24:59.855Z,12.75
2022-09-06T20:27:46.143Z,13.57
2022-09-06T20:30:32.076Z,13.88
2022-09-06T20:33:18.323Z,11.55
2022-09-06T20:36:06.249Z,12.13
2022-09-06T20:38:52.341Z,14.23
2022-09-06T20:41:38.602Z,15.70
2022-09-06T20:44:24.535Z,15.93
2022-09-06T20:47:10.375Z,12.23
2022-09-06T20:49:56.150Z,14.00
2022-09-06T20:52:42.305Z,20.42
2022-09-06T20:55:28.419Z,16.50
2022-09-06T20:58:14.323Z,12.95
2022-09-06T21:01:00.346Z,13.05
2022-09-06T21:03:46.498Z,14.13
2022-09-06T21:06:36.659Z,15.65
2022-09-06T21:09:22.937Z,15.40
2022-09-06T21:12:08.912Z,13.70
2022-09-06T21:14:55.159Z,15.25
2022-09-06T21:17:41.130Z,16.40
2022-09-06T21:20:26.874Z,18.27
2022-09-06T21:23:12.810Z,15.60
2022-09-06T21:26:10.270Z,17.13
2022-09-06T21:28:56.238Z,14.85
2022-09-06T21:31:42.507Z,11.57
2022-09-06T21:34:28.874Z,12.40
2022-09-06T21:37:14.871Z,14.13
2022-09-06T21:40:00.733Z,15.90
2022-09-06T21:42:47.237Z,12.25
2022-09-06T21:45:38.180Z,20.05
2022-09-06T21:48:24.534Z,12.70
2022-09-06T21:51:15.606Z,11.32
2022-09-06T21:54:05.096Z,15.80
2022-09-06T21:56:51.344Z,13.38
2022-09-06T21:59:37.315Z,15.30
2022-09-06T22:02:23.668Z,12.32
2022-09-06T22:05:10.042Z,12.68
2022-09-06T22:07:56.094Z,11.38
2022-09-06T22:10:42.164Z,16.05
2022-09-06T22:13:28.315Z,13.65
2022-09-06T22:16:15.732Z,15.80
2022-09-06T22:19:02.197Z,11.95
2022-09-06T22:21:48.591Z,12.70
2022-09-06T22:24:34.883Z,9.43
2022-09-06T22:27:20.823Z,12.52
2022-09-06T22:30:07.254Z,10.88
2022-09-06T22:32:53.777Z,10.40
2022-09-06T22:35:40.149Z,12.20
2022-09-06T22:38:27.345Z,9.35
2022-09-06T22:41:13.521Z,12.35
2022-09-06T22:44:03.736Z,10.90
2022-09-06T22:46:50.012Z,11.27
2022-09-06T22:49:36.122Z,16.95
2022-09-06T22:52:21.960Z,11.45
2022-09-06T22:55:08.341Z,13.57
2022-09-06T22:57:54.498Z,15.32
2022-09-06T23:00:40.473Z,10.57
2022-09-06T23:03:26.356Z,14.93
2022-09-06T23:06:12.676Z,11.73
2022-09-06T23:08:58.805Z,12.10
2022-09-06T23:11:45.377Z,13.63
2022-09-06T23:14:31.428Z,14.07
2022-09-06T23:17:17.451Z,12.05
2022-09-06T23:20:04.027Z,14.57
2022-09-06T23:22:50.119Z,10.38
2022-09-06T23:25:39.370Z,15.07
2022-09-06T23:28:25.463Z,8.88
2022-09-06T23:31:14.681Z,11.52
2022-09-06T23:34:01.568Z,12.05
2022-09-06T23:36:48.106Z,11.77
2022-09-06T23:39:34.210Z,10.30
2022-09-06T23:42:21.115Z,10.80
2022-09-06T23:45:07.362Z,11.43
2022-09-06T23:47:53.306Z,10.52
2022-09-06T23:50:39.449Z,10.27
2022-09-06T23:53:25.841Z,12.48
2022-09-06T23:56:12.352Z,12.60
2022-09-06T23:58:58.498Z,9.57
